Time;durP1;ratioP1;P1;durP2;ratioP2;P2;SDS_P1;SDS_P2;PMS_P1;PMS_P2;Temp;Humidity;BMP_temperature;BMP_pressure;BME280_temperature;BME280_humidity;BME280_pressure;Samples;Min_cycle;Max_cycle;Signal;HPM_P1;HPM_P2
2022/06/10 00:02:32;;;;;;;0.40;0.40;;;15.20;99.90;;;;;;5016972;28;20210;-67
2022/06/10 00:05:24;;;;;;;0.40;0.40;;;15.20;99.90;;;;;;5015323;28;20220;-67
2022/06/10 00:08:15;;;;;;;0.40;0.40;;;15.10;99.90;;;;;;5017007;28;20226;-67
2022/06/10 00:11:05;;;;;;;0.40;0.40;;;15.10;99.90;;;;;;5015421;28;20198;-67
2022/06/10 00:13:53;;;;;;;0.40;0.40;;;15.00;99.90;;;;;;5016445;28;20203;-67
2022/06/10 00:16:41;;;;;;;0.40;0.40;;;15.00;99.90;;;;;;5015416;28;20198;-67
2022/06/10 00:19:29;;;;;;;0.40;0.40;;;14.90;99.90;;;;;;5016038;28;20225;-67
2022/06/10 00:22:19;;;;;;;0.40;0.40;;;14.80;99.90;;;;;;5016226;28;20791;-67
2022/06/10 00:25:08;;;;;;;0.40;0.40;;;14.80;99.90;;;;;;5016610;28;20203;-67
2022/06/10 00:27:57;;;;;;;0.40;0.40;;;14.70;99.90;;;;;;5015749;28;20199;-67
2022/06/10 00:30:45;;;;;;;0.40;0.40;;;14.70;99.90;;;;;;5015451;28;20203;-67
2022/06/10 00:33:34;;;;;;;0.40;0.40;;;14.70;99.90;;;;;;5016790;28;20213;-67
2022/06/10 00:36:23;;;;;;;0.40;0.40;;;14.60;99.90;;;;;;5015549;28;20418;-67
2022/06/10 00:39:12;;;;;;;0.40;0.40;;;14.60;99.90;;;;;;5016724;28;20631;-67
2022/06/10 00:42:01;;;;;;;0.40;0.40;;;14.60;99.90;;;;;;5014918;28;20199;-67
2022/06/10 00:44:52;;;;;;;0.40;0.40;;;14.60;99.90;;;;;;5016277;28;20203;-67
2022/06/10 00:47:43;;;;;;;0.40;0.40;;;14.50;99.90;;;;;;5015628;28;20199;-66
2022/06/10 00:50:32;;;;;;;0.40;0.40;;;14.40;99.90;;;;;;5015461;28;20284;-66
2022/06/10 00:53:24;;;;;;;0.40;0.40;;;14.40;99.90;;;;;;5014629;28;20429;-66
2022/06/10 00:56:18;;;;;;;0.40;0.40;;;14.40;99.90;;;;;;5016497;28;20915;-66
2022/06/10 00:59:13;;;;;;;1.37;0.93;;;14.50;99.90;;;;;;5015649;28;20454;-66
2022/06/10 01:02:04;;;;;;;0.40;0.40;;;14.40;99.90;;;;;;5014134;28;20938;-66
2022/06/10 01:04:55;;;;;;;0.60;0.60;;;14.30;99.90;;;;;;5016332;28;20281;-66
2022/06/10 01:07:48;;;;;;;0.40;0.40;;;14.30;99.90;;;;;;5023009;28;20233;-66
2022/06/10 01:10:43;;;;;;;0.40;0.40;;;14.30;99.90;;;;;;5027008;28;20431;-66
2022/06/10 01:13:43;;;;;;;0.40;0.40;;;14.20;99.90;;;;;;5025941;28;20277;-66
2022/06/10 01:16:39;;;;;;;0.40;0.40;;;14.20;99.90;;;;;;4994671;28;20196;-66
2022/06/10 01:19:47;;;;;;;0.40;0.40;;;14.20;99.90;;;;;;4995342;28;20227;-66
2022/06/10 01:23:07;;;;;;;0.40;0.40;;;14.10;99.90;;;;;;4995552;28;20230;-67
2022/06/10 01:27:47;;;;;;;0.40;0.40;;;14.10;99.90;;;;;;4994791;28;20585;-66
2022/06/10 01:30:01;;;;;;;1.13;0.80;;;14.00;99.90;;;;;;4995163;28;20514;-67
2022/06/10 01:33:02;;;;;;;0.40;0.40;;;14.00;99.90;;;;;;4998668;28;20207;-66
2022/06/10 01:35:58;;;;;;;0.40;0.40;;;13.90;99.90;;;;;;5002557;28;20438;-66
2022/06/10 01:38:51;;;;;;;0.40;0.40;;;13.90;99.90;;;;;;5003733;28;20458;-66
2022/06/10 01:41:50;;;;;;;0.50;0.50;;;13.80;99.90;;;;;;4994609;28;20514;-69
2022/06/10 01:44:44;;;;;;;0.60;0.60;;;13.80;99.90;;;;;;4994828;28;20738;-67
2022/06/10 01:47:40;;;;;;;0.40;0.40;;;13.80;99.90;;;;;;4994641;28;20983;-66
2022/06/10 01:50:35;;;;;;;0.40;0.40;;;13.70;99.90;;;;;;4994543;28;20423;-66
2022/06/10 01:53:28;;;;;;;0.40;0.40;;;13.70;99.90;;;;;;4994399;28;20267;-67
2022/06/10 01:56:23;;;;;;;0.40;0.40;;;13.70;99.90;;;;;;4994358;28;20426;-66
2022/06/10 01:59:17;;;;;;;0.40;0.40;;;13.60;99.90;;;;;;4994099;28;20482;-66
2022/06/10 02:02:08;;;;;;;0.40;0.40;;;13.60;99.90;;;;;;4994362;28;20203;-67
2022/06/10 02:05:02;;;;;;;0.40;0.40;;;13.50;99.90;;;;;;4994633;28;21017;-66
2022/06/10 02:07:54;;;;;;;0.80;0.80;;;13.40;99.90;;;;;;4994240;28;20935;-67
2022/06/10 02:10:47;;;;;;;0.40;0.40;;;13.40;99.90;;;;;;4994058;28;20943;-67
2022/06/10 02:13:40;;;;;;;0.40;0.40;;;13.40;99.90;;;;;;4994339;28;20426;-66
2022/06/10 02:16:31;;;;;;;0.40;0.40;;;13.30;99.90;;;;;;4994208;28;20415;-66
2022/06/10 02:19:25;;;;;;;0.40;0.40;;;13.30;99.90;;;;;;4994905;28;20470;-67
2022/06/10 02:22:18;;;;;;;0.40;0.40;;;13.20;99.90;;;;;;4994143;28;20943;-66
2022/06/10 02:25:12;;;;;;;0.40;0.40;;;13.20;99.90;;;;;;4993924;28;20427;-67
2022/06/10 02:28:07;;;;;;;0.40;0.40;;;13.20;99.90;;;;;;4993598;28;20508;-66
2022/06/10 02:31:02;;;;;;;0.40;0.40;;;13.20;99.90;;;;;;4994252;28;20795;-66
2022/06/10 02:33:50;;;;;;;0.40;0.40;;;13.10;99.90;;;;;;4993671;28;20425;-66
2022/06/10 02:36:46;;;;;;;0.40;0.40;;;13.10;99.90;;;;;;4993859;28;20423;-67
2022/06/10 02:39:37;;;;;;;0.40;0.40;;;13.10;99.90;;;;;;4993544;28;20462;-66
2022/06/10 02:42:35;;;;;;;0.40;0.40;;;13.00;99.90;;;;;;4993356;28;20429;-66
2022/06/10 02:45:32;;;;;;;0.40;0.40;;;13.00;99.90;;;;;;4993744;28;20442;-66
2022/06/10 02:48:31;;;;;;;0.50;0.50;;;13.00;99.90;;;;;;4993901;28;20481;-67
2022/06/10 02:51:19;;;;;;;1.27;1.17;;;13.00;99.90;;;;;;4993834;28;20446;-66
2022/06/10 02:54:11;;;;;;;0.40;0.40;;;13.00;99.90;;;;;;4994260;28;20435;-66
2022/06/10 02:57:13;;;;;;;0.40;0.40;;;13.00;99.90;;;;;;4993822;28;20426;-66
2022/06/10 03:03:30;;;;;;;0.40;0.40;;;13.00;99.90;;;;;;4994085;28;20808;-66
2022/06/10 03:06:27;;;;;;;0.40;0.40;;;13.00;99.90;;;;;;4993706;28;20438;-66
2022/06/10 03:09:21;;;;;;;0.40;0.40;;;13.00;99.90;;;;;;4992672;28;20443;-67
2022/06/10 03:12:21;;;;;;;0.43;0.43;;;13.00;99.90;;;;;;4993684;28;20813;-67
2022/06/10 03:15:20;;;;;;;0.40;0.40;;;13.00;99.90;;;;;;4993444;28;20426;-67
2022/06/10 03:18:17;;;;;;;0.40;0.40;;;13.00;99.90;;;;;;4993833;28;20470;-67
2022/06/10 03:21:12;;;;;;;0.40;0.40;;;13.10;99.90;;;;;;4994224;28;20430;-66
2022/06/10 03:24:08;;;;;;;0.90;0.90;;;13.10;99.90;;;;;;4994572;28;20426;-67
2022/06/10 03:27:02;;;;;;;0.40;0.40;;;13.20;99.90;;;;;;4997090;28;20875;-67
2022/06/10 03:29:56;;;;;;;0.40;0.40;;;13.20;99.90;;;;;;4996737;28;20450;-67
2022/06/10 03:32:53;;;;;;;0.40;0.40;;;13.20;99.90;;;;;;4997105;28;20990;-67
2022/06/10 03:35:45;;;;;;;0.40;0.40;;;13.20;99.90;;;;;;4997212;28;20935;-67
2022/06/10 03:38:34;;;;;;;0.40;0.40;;;13.20;99.90;;;;;;4997529;28;20960;-67
2022/06/10 03:41:26;;;;;;;0.60;0.60;;;13.30;99.90;;;;;;4996542;28;20427;-67
2022/06/10 03:44:17;;;;;;;0.40;0.40;;;13.30;99.90;;;;;;4997529;28;20438;-67
2022/06/10 03:47:08;;;;;;;0.40;0.40;;;13.30;99.90;;;;;;4997001;28;20469;-67
2022/06/10 03:49:59;;;;;;;0.40;0.40;;;13.30;99.90;;;;;;4996716;28;20886;-66
2022/06/10 03:52:48;;;;;;;0.40;0.40;;;13.30;99.90;;;;;;4997469;28;20525;-66
2022/06/10 03:55:36;;;;;;;0.70;0.70;;;13.30;99.90;;;;;;4996677;28;20430;-66
2022/06/10 03:58:24;;;;;;;0.40;0.40;;;13.40;99.90;;;;;;4996429;28;20235;-67
2022/06/10 04:01:12;;;;;;;0.50;0.50;;;13.50;99.90;;;;;;4997394;28;20442;-66
2022/06/10 04:04:00;;;;;;;0.70;0.60;;;13.50;99.90;;;;;;4997147;28;20433;-67
2022/06/10 04:06:50;;;;;;;0.40;0.40;;;13.60;99.90;;;;;;4997417;28;20419;-67
2022/06/10 04:09:48;;;;;;;0.40;0.40;;;13.60;99.90;;;;;;4996820;28;20466;-67
2022/06/10 04:12:36;;;;;;;0.40;0.40;;;13.70;99.90;;;;;;4998231;28;20427;-67
2022/06/10 04:15:27;;;;;;;0.50;0.50;;;13.70;99.90;;;;;;4997832;28;20427;-67
2022/06/10 04:18:15;;;;;;;0.40;0.40;;;13.80;99.90;;;;;;5014506;28;20454;-67
2022/06/10 04:21:04;;;;;;;0.40;0.40;;;13.80;99.90;;;;;;5014872;28;20431;-67
2022/06/10 04:23:53;;;;;;;0.50;0.50;;;13.90;99.90;;;;;;5014207;28;20423;-67
2022/06/10 04:26:41;;;;;;;0.50;0.50;;;13.90;99.90;;;;;;5014055;28;20427;-67
2022/06/10 04:29:30;;;;;;;0.40;0.40;;;13.90;99.90;;;;;;5012968;28;20442;-67
2022/06/10 04:32:18;;;;;;;0.40;0.40;;;14.00;99.90;;;;;;5014200;28;20412;-67
2022/06/10 04:35:06;;;;;;;0.40;0.40;;;14.00;99.90;;;;;;5004219;28;20865;-67
2022/06/10 04:37:56;;;;;;;0.40;0.40;;;14.10;99.90;;;;;;4997377;28;20462;-67
2022/06/10 04:40:53;;;;;;;0.40;0.40;;;14.10;99.90;;;;;;4997461;28;20518;-67
2022/06/10 04:43:42;;;;;;;0.40;0.40;;;14.20;99.90;;;;;;4997584;28;20486;-67
2022/06/10 04:46:33;;;;;;;0.40;0.40;;;14.10;99.90;;;;;;4998406;28;20431;-67
2022/06/10 04:49:21;;;;;;;0.40;0.40;;;14.20;99.90;;;;;;5002936;28;20470;-67
2022/06/10 04:52:09;;;;;;;0.50;0.50;;;14.20;99.90;;;;;;5006081;28;20427;-67
2022/06/10 04:54:57;;;;;;;0.87;0.87;;;14.30;99.90;;;;;;5000205;28;20426;-67
2022/06/10 04:57:46;;;;;;;0.40;0.40;;;14.40;99.90;;;;;;4996928;28;20427;-67
2022/06/10 05:00:38;;;;;;;0.47;0.47;;;14.40;99.90;;;;;;5072339;22;20991;-67
2022/06/10 05:03:26;;;;;;;0.70;0.70;;;14.50;99.90;;;;;;5056708;28;20428;-68
2022/06/10 05:06:14;;;;;;;0.50;0.50;;;14.50;99.90;;;;;;5054860;28;20432;-67
2022/06/10 05:09:02;;;;;;;0.50;0.50;;;14.50;99.90;;;;;;5056608;28;21010;-66
2022/06/10 05:11:50;;;;;;;0.77;0.77;;;14.60;99.90;;;;;;5056315;28;20428;-68
2022/06/10 05:14:40;;;;;;;0.40;0.40;;;14.60;99.90;;;;;;5055211;28;20205;-68
2022/06/10 05:17:28;;;;;;;0.50;0.50;;;14.70;99.90;;;;;;5056100;28;20435;-68
2022/06/10 05:20:19;;;;;;;0.50;0.50;;;14.70;99.90;;;;;;5055791;28;20445;-68
2022/06/10 05:23:08;;;;;;;0.40;0.40;;;14.70;99.90;;;;;;5055257;28;20428;-68
2022/06/10 05:25:56;;;;;;;0.50;0.50;;;14.70;99.90;;;;;;5056217;28;20475;-66
2022/06/10 05:28:44;;;;;;;0.40;0.40;;;14.80;99.90;;;;;;5055875;28;20617;-69
2022/06/10 05:31:34;;;;;;;0.40;0.40;;;14.90;99.90;;;;;;5055643;28;20225;-68
2022/06/10 05:37:28;;;;;;;0.90;0.90;;;15.00;99.90;;;;;;5055028;28;20424;-67
2022/06/10 05:40:17;;;;;;;0.70;0.70;;;15.10;99.90;;;;;;5054554;28;20448;-68
2022/06/10 05:43:06;;;;;;;0.57;0.57;;;15.10;99.90;;;;;;5055827;28;20202;-69
2022/06/10 05:46:00;;;;;;;0.73;0.73;;;15.10;99.90;;;;;;5054909;28;20214;-68
2022/06/10 05:48:49;;;;;;;0.40;0.40;;;15.20;99.90;;;;;;5054943;28;20271;-68
2022/06/10 05:51:38;;;;;;;0.70;0.70;;;15.20;99.90;;;;;;5055606;28;20416;-67
2022/06/10 05:54:26;;;;;;;0.40;0.40;;;15.20;99.90;;;;;;5055225;28;20427;-68
2022/06/10 05:57:17;;;;;;;1.10;0.90;;;15.30;99.90;;;;;;5055081;28;20962;-69
2022/06/10 06:00:08;;;;;;;0.40;0.40;;;15.50;99.90;;;;;;5054407;28;20229;-67
2022/06/10 06:02:58;;;;;;;0.50;0.50;;;15.50;99.90;;;;;;5047120;28;20263;-68
2022/06/10 06:05:48;;;;;;;0.40;0.40;;;15.60;99.90;;;;;;5036352;28;20198;-67
2022/06/10 06:08:36;;;;;;;0.60;0.60;;;15.70;99.90;;;;;;5056088;28;20225;-67
2022/06/10 06:11:25;;;;;;;0.40;0.40;;;15.70;99.90;;;;;;5073293;28;20266;-68
2022/06/10 06:14:13;;;;;;;2.07;1.97;;;15.80;99.90;;;;;;5074728;28;20220;-68
2022/06/10 06:17:03;;;;;;;0.50;0.50;;;15.80;99.90;;;;;;5075264;28;20237;-68
2022/06/10 06:19:52;;;;;;;1.23;1.13;;;15.80;99.90;;;;;;5072066;28;20218;-69
2022/06/10 06:22:41;;;;;;;1.08;0.98;;;15.90;99.90;;;;;;5056231;28;20424;-67
2022/06/10 06:25:31;;;;;;;0.70;0.70;;;16.00;99.90;;;;;;5055045;28;20201;-68
2022/06/10 06:28:19;;;;;;;1.15;1.05;;;16.00;99.90;;;;;;5055977;28;20213;-68
2022/06/10 06:31:07;;;;;;;0.40;0.40;;;16.10;99.90;;;;;;5054646;28;20213;-70
2022/06/10 06:33:55;;;;;;;0.95;0.95;;;16.20;99.90;;;;;;5055541;28;20201;-66
2022/06/10 06:36:46;;;;;;;0.50;0.50;;;16.20;99.90;;;;;;5055311;28;20685;-67
2022/06/10 06:39:36;;;;;;;0.40;0.40;;;16.30;99.90;;;;;;5053973;28;20221;-68
2022/06/10 06:42:24;;;;;;;0.40;0.40;;;16.30;99.90;;;;;;5055561;28;20197;-68
2022/06/10 06:45:12;;;;;;;0.40;0.40;;;16.40;99.90;;;;;;5054157;28;20255;-67
2022/06/10 06:48:14;;;;;;;0.40;0.40;;;16.40;99.90;;;;;;5054149;28;20217;-69
2022/06/10 06:51:02;;;;;;;0.50;0.50;;;16.50;99.90;;;;;;5052184;28;20212;-69
2022/06/10 06:53:50;;;;;;;0.63;0.63;;;16.60;99.90;;;;;;5055410;28;20197;-68
2022/06/10 06:56:39;;;;;;;1.48;0.80;;;16.60;99.90;;;;;;5068703;28;20208;-69
2022/06/10 06:59:29;;;;;;;0.60;0.60;;;16.70;99.90;;;;;;5074827;28;20224;-69
2022/06/10 07:02:17;;;;;;;0.57;0.57;;;16.90;99.90;;;;;;5076957;28;20725;-69
2022/06/10 07:05:06;;;;;;;3.30;1.02;;;16.90;99.90;;;;;;5077165;28;20601;-67
2022/06/10 07:07:54;;;;;;;0.40;0.40;;;16.90;99.90;;;;;;5078393;28;20211;-69
2022/06/10 07:10:43;;;;;;;0.50;0.50;;;17.00;99.90;;;;;;5076755;28;20664;-70
2022/06/10 07:13:33;;;;;;;0.50;0.50;;;17.20;99.90;;;;;;5075781;28;20197;-72
2022/06/10 07:16:21;;;;;;;0.40;0.40;;;17.30;99.90;;;;;;5076055;28;20204;-72
2022/06/10 07:19:11;;;;;;;0.50;0.50;;;17.50;99.90;;;;;;5076416;28;20236;-70
2022/06/10 07:21:59;;;;;;;0.40;0.40;;;17.50;99.90;;;;;;5075821;28;20204;-71
2022/06/10 07:24:47;;;;;;;0.40;0.40;;;17.50;99.90;;;;;;5075511;28;20197;-70
2022/06/10 07:27:36;;;;;;;0.50;0.50;;;17.60;99.90;;;;;;5076308;28;20244;-69
2022/06/10 07:30:29;;;;;;;0.40;0.40;;;17.60;99.90;;;;;;5073460;28;20224;-72
2022/06/10 07:33:17;;;;;;;0.60;0.60;;;17.70;99.90;;;;;;5074268;28;20201;-71
2022/06/10 07:36:07;;;;;;;0.50;0.50;;;17.80;99.90;;;;;;5086944;28;20192;-70
2022/06/10 07:38:55;;;;;;;0.50;0.50;;;17.80;99.90;;;;;;5089312;28;20227;-69
2022/06/10 07:42:00;;;;;;;0.50;0.50;;;17.90;99.90;;;;;;5087327;28;20220;-69
2022/06/10 07:44:48;;;;;;;0.40;0.40;;;18.00;99.90;;;;;;5088612;28;20209;-71
2022/06/10 07:47:38;;;;;;;1.25;0.70;;;18.10;99.90;;;;;;5084559;28;20227;-71
2022/06/10 07:50:26;;;;;;;2.47;0.95;;;18.20;99.90;;;;;;5082992;28;20220;-68
2022/06/10 07:53:15;;;;;;;0.85;0.82;;;18.10;99.90;;;;;;5086576;28;20208;-69
2022/06/10 07:56:03;;;;;;;0.50;0.50;;;18.10;99.90;;;;;;5085242;28;20200;-68
2022/06/10 07:58:53;;;;;;;3.00;0.85;;;18.20;99.90;;;;;;5058215;28;20233;-70
2022/06/10 08:01:42;;;;;;;2.40;1.30;;;18.20;99.90;;;;;;5057498;28;20561;-69
2022/06/10 08:04:32;;;;;;;1.20;0.73;;;18.30;99.90;;;;;;5055461;28;20198;-71
2022/06/10 08:07:20;;;;;;;0.50;0.50;;;18.40;99.90;;;;;;5058349;28;20642;-69
2022/06/10 08:10:16;;;;;;;2.17;2.08;;;18.30;99.90;;;;;;5055676;28;20217;-70
2022/06/10 08:13:06;;;;;;;1.17;0.80;;;18.40;99.90;;;;;;5055927;28;20205;-69
2022/06/10 08:15:55;;;;;;;0.50;0.50;;;18.50;99.90;;;;;;5054725;28;20212;-72
2022/06/10 08:18:43;;;;;;;0.50;0.50;;;18.50;99.90;;;;;;5055862;28;20233;-72
2022/06/10 08:24:44;;;;;;;0.50;0.50;;;18.80;99.90;;;;;;5053708;28;20201;-71
2022/06/10 08:27:33;;;;;;;0.60;0.60;;;18.90;99.90;;;;;;5054768;28;20596;-71
2022/06/10 08:30:21;;;;;;;1.35;0.98;;;19.00;99.90;;;;;;5053564;28;20327;-69
2022/06/10 08:33:09;;;;;;;0.60;0.60;;;19.00;99.90;;;;;;5053698;28;20206;-72
2022/06/10 08:35:59;;;;;;;0.40;0.40;;;19.10;99.90;;;;;;5053825;28;20550;-72
2022/06/10 08:38:49;;;;;;;0.73;0.70;;;19.10;99.90;;;;;;5053208;28;20283;-70
2022/06/10 08:41:53;;;;;;;1.25;0.75;;;19.20;99.90;;;;;;5054486;28;20197;-72
2022/06/10 08:44:49;;;;;;;2.80;1.02;;;19.50;99.90;;;;;;5053476;28;20205;-70
2022/06/10 08:47:48;;;;;;;0.60;0.60;;;19.40;99.90;;;;;;5054535;28;20276;-74
2022/06/10 08:50:50;;;;;;;0.90;0.73;;;19.50;99.90;;;;;;5054056;28;20605;-72
2022/06/10 08:53:51;;;;;;;1.20;0.70;;;19.70;99.90;;;;;;5053265;28;20577;-75
2022/06/10 08:56:42;;;;;;;0.40;0.40;;;19.80;99.90;;;;;;5063472;28;20215;-71
2022/06/10 08:59:37;;;;;;;1.85;0.82;;;19.80;99.90;;;;;;5077507;28;20227;-70
2022/06/10 09:02:32;;;;;;;0.50;0.50;;;20.00;99.90;;;;;;5073648;28;20197;-73
2022/06/10 09:05:25;;;;;;;0.40;0.40;;;20.20;99.90;;;;;;5073630;28;20193;-74
2022/06/10 09:08:16;;;;;;;0.60;0.60;;;20.20;99.90;;;;;;5073084;28;20627;-73
2022/06/10 09:11:17;;;;;;;0.50;0.50;;;20.20;99.90;;;;;;5058870;28;20263;-71
2022/06/10 09:14:11;;;;;;;0.40;0.40;;;20.20;99.90;;;;;;5054167;28;20619;-70
2022/06/10 09:17:09;;;;;;;0.65;0.65;;;20.20;99.90;;;;;;5052883;28;20201;-71
2022/06/10 09:20:05;;;;;;;0.75;0.75;;;20.10;99.90;;;;;;5052452;28;20694;-73
2022/06/10 09:23:01;;;;;;;0.50;0.50;;;20.10;99.90;;;;;;5052804;28;20205;-70
2022/06/10 09:25:57;;;;;;;0.50;0.50;;;20.40;99.90;;;;;;5052855;28;20201;-72
2022/06/10 09:28:48;;;;;;;2.50;0.93;;;20.70;99.90;;;;;;5052842;28;20314;-72
2022/06/10 09:31:40;;;;;;;0.80;0.55;;;20.90;99.90;;;;;;5054085;28;20685;-72
2022/06/10 09:34:38;;;;;;;1.08;0.60;;;20.70;99.90;;;;;;5052447;28;20194;-71
2022/06/10 09:37:34;;;;;;;0.70;0.70;;;20.70;99.90;;;;;;5054201;28;20281;-72
2022/06/10 09:40:38;;;;;;;0.40;0.40;;;20.60;99.90;;;;;;5053058;28;20224;-71
2022/06/10 09:43:46;;;;;;;0.40;0.40;;;20.60;99.90;;;;;;5051500;28;20202;-71
2022/06/10 09:46:54;;;;;;;0.40;0.40;;;20.90;99.90;;;;;;5053379;28;20208;-72
2022/06/10 09:50:03;;;;;;;0.80;0.80;;;21.10;99.90;;;;;;5051737;28;20217;-73
2022/06/10 09:53:02;;;;;;;1.05;0.95;;;20.90;99.90;;;;;;5052215;28;20197;-70
2022/06/10 09:56:05;;;;;;;0.50;0.50;;;20.60;99.90;;;;;;5053316;28;20193;-71
2022/06/10 09:59:07;;;;;;;0.60;0.60;;;20.50;99.90;;;;;;5031830;28;20725;-70
2022/06/10 10:02:10;;;;;;;0.50;0.50;;;20.60;99.90;;;;;;5032602;28;20194;-70
2022/06/10 10:05:15;;;;;;;0.60;0.60;;;20.60;99.90;;;;;;5031712;28;20215;-72
2022/06/10 10:08:17;;;;;;;0.40;0.40;;;20.70;99.90;;;;;;5032598;28;20209;-70
2022/06/10 10:11:11;;;;;;;1.20;1.05;;;20.80;99.90;;;;;;5031978;28;20213;-70
2022/06/10 10:14:07;;;;;;;0.85;0.82;;;20.90;99.90;;;;;;5032877;28;20209;-72
2022/06/10 10:17:10;;;;;;;0.77;0.77;;;21.00;99.60;;;;;;5032323;28;20202;-70
2022/06/10 10:20:08;;;;;;;0.45;0.45;;;21.00;99.50;;;;;;5032032;28;20613;-70
2022/06/10 10:23:11;;;;;;;0.60;0.60;;;21.00;99.70;;;;;;5032756;28;20198;-72
2022/06/10 10:26:00;;;;;;;0.40;0.40;;;21.00;99.60;;;;;;5032208;28;20304;-71
2022/06/10 10:28:52;;;;;;;0.57;0.57;;;21.10;99.90;;;;;;5032232;28;20221;-69
2022/06/10 10:31:45;;;;;;;0.40;0.40;;;21.10;99.50;;;;;;5031122;28;20257;-71
2022/06/10 10:34:39;;;;;;;0.40;0.40;;;21.10;99.90;;;;;;5032116;28;20204;-73
2022/06/10 10:37:30;;;;;;;1.90;0.70;;;21.20;99.90;;;;;;5048370;28;20205;-69
2022/06/10 10:40:29;;;;;;;0.85;0.57;;;21.00;99.90;;;;;;5050857;28;20210;-70
2022/06/10 10:43:22;;;;;;;0.52;0.52;;;21.50;99.90;;;;;;5050941;28;20295;-70
2022/06/10 10:46:29;;;;;;;3.90;0.50;;;21.50;99.80;;;;;;5067207;28;20212;-70
2022/06/10 10:49:23;;;;;;;0.60;0.60;;;21.50;99.00;;;;;;5070064;28;20227;-72
2022/06/10 10:52:19;;;;;;;0.40;0.40;;;21.50;99.20;;;;;;5071324;28;20243;-70
2022/06/10 10:55:23;;;;;;;0.40;0.40;;;21.50;98.20;;;;;;5071534;28;20688;-70
2022/06/10 10:58:20;;;;;;;0.40;0.40;;;21.40;98.00;;;;;;5053507;28;20197;-70
2022/06/10 11:01:43;;;;;;;0.40;0.40;;;21.50;98.50;;;;;;5052245;28;20201;-71
2022/06/10 11:04:27;;;;;;;0.68;0.60;;;21.50;98.70;;;;;;5051443;28;20204;-71
2022/06/10 11:07:23;;;;;;;0.40;0.40;;;21.50;98.40;;;;;;5052530;28;20192;-70
2022/06/10 11:10:19;;;;;;;0.52;0.52;;;21.50;98.00;;;;;;5050261;28;20225;-71
2022/06/10 11:13:09;;;;;;;1.23;1.02;;;21.60;97.40;;;;;;5051351;28;20201;-69
2022/06/10 11:16:31;;;;;;;0.40;0.40;;;21.70;97.90;;;;;;5052971;28;20258;-70
2022/06/10 11:19:26;;;;;;;0.50;0.50;;;21.90;96.50;;;;;;5050918;28;20730;-70
2022/06/10 11:22:32;;;;;;;1.05;0.60;;;22.00;96.50;;;;;;5053256;28;20197;-70
2022/06/10 11:25:28;;;;;;;0.40;0.40;;;22.10;95.60;;;;;;5056858;28;20272;-70
2022/06/10 11:28:20;;;;;;;0.60;0.60;;;21.90;95.70;;;;;;5052257;28;20203;-71
2022/06/10 11:31:20;;;;;;;0.40;0.40;;;21.90;95.80;;;;;;5050201;28;20221;-69
2022/06/10 11:34:18;;;;;;;0.40;0.40;;;22.00;95.10;;;;;;5051030;28;20204;-70
2022/06/10 11:37:22;;;;;;;0.70;0.70;;;22.10;95.40;;;;;;5052198;28;20201;-71
2022/06/10 11:40:15;;;;;;;0.50;0.50;;;22.20;94.70;;;;;;5050368;28;20223;-70
2022/06/10 11:43:08;;;;;;;0.70;0.70;;;22.30;95.10;;;;;;5052121;28;20596;-70
2022/06/10 11:45:59;;;;;;;0.57;0.57;;;22.30;94.70;;;;;;5053321;28;20210;-70
2022/06/10 11:48:53;;;;;;;0.80;0.80;;;22.20;94.30;;;;;;5055706;28;20224;-70
2022/06/10 11:51:45;;;;;;;0.40;0.40;;;22.20;93.70;;;;;;5056001;28;20232;-74
2022/06/10 11:54:40;;;;;;;0.45;0.45;;;22.30;94.10;;;;;;5057135;28;20201;-71
2022/06/10 12:00:44;;;;;;;0.40;0.40;;;22.40;93.20;;;;;;5079341;28;20228;-69
2022/06/10 12:03:37;;;;;;;0.50;0.50;;;22.60;93.20;;;;;;5079101;28;20224;-75
2022/06/10 12:06:30;;;;;;;0.50;0.50;;;22.60;93.40;;;;;;5078691;28;20250;-69
2022/06/10 12:09:24;;;;;;;0.40;0.40;;;22.70;93.70;;;;;;5076923;28;20227;-71
2022/06/10 12:12:15;;;;;;;0.40;0.40;;;22.80;93.50;;;;;;5074183;28;20224;-68
2022/06/10 12:15:18;;;;;;;0.40;0.40;;;22.90;92.90;;;;;;5076560;28;20212;-72
2022/06/10 12:18:07;;;;;;;0.40;0.40;;;22.90;93.10;;;;;;5073184;28;20196;-70
2022/06/10 12:20:59;;;;;;;0.50;0.50;;;23.00;93.00;;;;;;5072314;28;20257;-69
2022/06/10 12:23:48;;;;;;;4.03;1.52;;;23.10;93.00;;;;;;5072035;28;20205;-71
2022/06/10 12:26:46;;;;;;;0.50;0.50;;;23.00;91.40;;;;;;5073561;28;20212;-70
2022/06/10 12:29:41;;;;;;;0.50;0.50;;;22.90;91.90;;;;;;5071776;28;20216;-69
2022/06/10 12:32:37;;;;;;;0.40;0.40;;;23.00;91.60;;;;;;5073704;28;20217;-71
2022/06/10 12:35:31;;;;;;;1.80;1.05;;;23.30;91.80;;;;;;5074315;28;20208;-73
2022/06/10 12:38:22;;;;;;;0.50;0.50;;;23.60;91.20;;;;;;5073099;28;20204;-69
2022/06/10 12:41:14;;;;;;;0.40;0.40;;;24.20;89.70;;;;;;5074006;28;20196;-69
2022/06/10 12:44:09;;;;;;;0.45;0.45;;;26.30;85.80;;;;;;5072454;28;20212;-68
2022/06/10 12:47:00;;;;;;;0.40;0.40;;;29.20;77.00;;;;;;5073682;28;20584;-69
2022/06/10 12:49:58;;;;;;;0.40;0.40;;;31.60;69.60;;;;;;5072076;28;20322;-68
2022/06/10 12:53:14;;;;;;;0.43;0.43;;;33.20;62.60;;;;;;5072348;28;20666;-69
2022/06/10 12:56:18;;;;;;;0.40;0.40;;;34.40;57.40;;;;;;5071187;28;20208;-69
2022/06/10 12:59:25;;;;;;;0.63;0.63;;;35.70;52.80;;;;;;5072710;28;20314;-71
2022/06/10 13:02:35;;;;;;;0.40;0.40;;;36.40;50.60;;;;;;5072663;28;20197;-68
2022/06/10 13:05:27;;;;;;;0.40;0.40;;;37.30;48.70;;;;;;5072165;28;20233;-68
2022/06/10 13:08:39;;;;;;;0.40;0.40;;;37.40;46.60;;;;;;5072400;28;20211;-67
2022/06/10 13:11:39;;;;;;;0.50;0.50;;;37.60;45.90;;;;;;5072182;28;20217;-68
2022/06/10 13:14:44;;;;;;;9.73;0.85;;;38.30;44.00;;;;;;5073090;28;20616;-68
2022/06/10 13:17:32;;;;;;;0.40;0.40;;;38.80;42.60;;;;;;5071680;28;20197;-67
2022/06/10 13:20:27;;;;;;;0.40;0.40;;;38.70;42.90;;;;;;5072294;28;20221;-68
2022/06/10 13:23:20;;;;;;;0.40;0.40;;;39.80;41.90;;;;;;5080373;28;20303;-70
2022/06/10 13:26:18;;;;;;;1.00;0.88;;;40.80;39.90;;;;;;5068152;28;20198;-68
2022/06/10 13:29:11;;;;;;;0.50;0.50;;;42.20;38.50;;;;;;5051232;28;20224;-68
2022/06/10 13:31:59;;;;;;;0.50;0.50;;;42.40;37.80;;;;;;5051710;28;20240;-68
2022/06/10 13:34:54;;;;;;;0.40;0.40;;;42.60;36.90;;;;;;5052489;28;20685;-68
2022/06/10 13:37:44;;;;;;;0.50;0.50;;;43.00;36.60;;;;;;5052333;28;20197;-68
2022/06/10 13:40:32;;;;;;;0.45;0.45;;;43.50;35.30;;;;;;5051864;28;20213;-68
2022/06/10 13:43:26;;;;;;;0.40;0.40;;;43.10;35.60;;;;;;5051328;28;20281;-68
2022/06/10 13:46:19;;;;;;;0.50;0.50;;;42.90;35.50;;;;;;5051510;28;20201;-68
2022/06/10 13:49:12;;;;;;;0.40;0.40;;;44.50;34.80;;;;;;5051293;28;20217;-68
2022/06/10 13:52:16;;;;;;;0.50;0.50;;;44.30;34.20;;;;;;5051555;28;20221;-68
2022/06/10 13:55:23;;;;;;;1.08;1.08;;;43.00;34.10;;;;;;5050538;28;20204;-71
2022/06/10 13:58:19;;;;;;;0.50;0.50;;;43.80;34.20;;;;;;5050540;28;20200;-68
2022/06/10 14:01:16;;;;;;;0.70;0.70;;;44.90;33.20;;;;;;5051786;28;20209;-70
2022/06/10 14:04:09;;;;;;;0.50;0.50;;;44.60;32.80;;;;;;5050943;28;20582;-69
2022/06/10 14:07:01;;;;;;;0.50;0.50;;;43.70;33.30;;;;;;5053180;28;20201;-69
2022/06/10 14:09:49;;;;;;;0.50;0.50;;;43.90;33.50;;;;;;5051153;28;20696;-66
2022/06/10 14:12:39;;;;;;;0.50;0.50;;;43.50;33.60;;;;;;5052643;28;20205;-69
2022/06/10 14:15:28;;;;;;;0.80;0.80;;;43.50;33.10;;;;;;5051585;28;20201;-69
2022/06/10 14:18:19;;;;;;;0.50;0.50;;;42.50;33.20;;;;;;5052520;28;20201;-69
2022/06/10 14:21:07;;;;;;;0.43;0.43;;;42.10;33.50;;;;;;5051436;28;20634;-69
2022/06/10 14:24:08;;;;;;;0.50;0.50;;;43.20;33.00;;;;;;5052584;28;20253;-69
2022/06/10 14:27:03;;;;;;;0.50;0.50;;;44.10;32.60;;;;;;5052571;28;20216;-70
2022/06/10 14:30:02;;;;;;;0.50;0.50;;;43.70;32.50;;;;;;5051296;28;20229;-70
2022/06/10 14:32:56;;;;;;;0.50;0.50;;;44.60;32.20;;;;;;5052045;28;20197;-70
2022/06/10 14:36:06;;;;;;;0.52;0.52;;;45.10;32.10;;;;;;5051775;28;20232;-69
2022/06/10 14:39:14;;;;;;;0.80;0.80;;;46.00;31.60;;;;;;5051010;28;20221;-70
2022/06/10 14:42:05;;;;;;;0.50;0.50;;;44.10;31.70;;;;;;5052104;28;20228;-70
2022/06/10 14:44:59;;;;;;;0.45;0.45;;;42.80;32.90;;;;;;5051046;28;20585;-70
2022/06/10 14:48:02;;;;;;;0.50;0.50;;;42.30;33.70;;;;;;5052511;28;20205;-69
2022/06/10 14:51:15;;;;;;;0.50;0.50;;;42.60;33.30;;;;;;5050978;28;20224;-69
2022/06/10 14:54:12;;;;;;;0.50;0.50;;;43.80;32.30;;;;;;5050965;28;20704;-69
2022/06/10 14:57:00;;;;;;;0.50;0.50;;;45.80;32.00;;;;;;5052622;28;20198;-69
2022/06/10 14:59:49;;;;;;;0.60;0.60;;;47.70;31.30;;;;;;5050829;28;20228;-69
2022/06/10 15:02:39;;;;;;;0.60;0.60;;;47.70;30.00;;;;;;5051525;28;20320;-69
2022/06/10 15:08:33;;;;;;;0.60;0.60;;;46.60;30.00;;;;;;5050478;28;20200;-70
2022/06/10 15:11:29;;;;;;;0.60;0.60;;;45.60;30.40;;;;;;5050958;28;20689;-70
2022/06/10 15:14:19;;;;;;;0.57;0.57;;;45.10;30.70;;;;;;5052277;28;20719;-69
2022/06/10 15:17:11;;;;;;;0.50;0.50;;;44.90;31.00;;;;;;5052290;28;20205;-69
2022/06/10 15:20:00;;;;;;;0.50;0.50;;;44.30;30.90;;;;;;5053642;28;20314;-69
2022/06/10 15:22:53;;;;;;;0.70;0.70;;;44.40;31.20;;;;;;5058245;28;20231;-70